Terminal Aerodrome Forecast
Issued by NWS Wakefield, VA

Home | Current Version | Previous Version | Text Only | Print | Product List | Glossary On
Versions: 1 2 3 4 5 6 7 8 9 10 11 12 13 14
285
FTUS41 KAKQ 141741
TAFORF
TAF
KORF 141741Z 1418/1518 01009KT P6SM SCT250
     FM142200 VRB06KT P6SM SCT100 BKN150
     FM150600 08004KT 4SM -SN SCT030 OVC060
     FM150900 07007KT 1 1/2SM -SN BR BKN009 OVC020
     FM151400 08009KT 2SM -RA BR OVC005=

USA.gov is the U.S. government's official web portal to all federal, state and local government web resources and services.